Time;durP1;ratioP1;P1;durP2;ratioP2;P2;SDS_P1;SDS_P2;PMS_P1;PMS_P2;Temp;Humidity;BMP_temperature;BMP_pressure;BME280_temperature;BME280_humidity;BME280_pressure;Samples;Min_cycle;Max_cycle;Signal;HPM_P1;HPM_P2
2021/03/10 00:00:43;;;;;;;45.23;20.75;;;;;;;-5.84;56.48;100366.25;1694045;85;21181;-66
2021/03/10 00:03:10;;;;;;;29.70;14.00;;;;;;;-5.93;57.59;100368.53;1693819;85;21193;-67
2021/03/10 00:05:38;;;;;;;31.48;15.65;;;;;;;-6.02;58.45;100364.64;1668419;85;21168;-67
2021/03/10 00:08:06;;;;;;;33.38;14.28;;;;;;;-6.16;59.11;100368.12;1716804;83;21341;-67
2021/03/10 00:10:34;;;;;;;35.80;15.08;;;;;;;-6.32;59.43;100367.95;1685182;85;21188;-66
2021/03/10 00:13:01;;;;;;;38.75;17.52;;;;;;;-6.40;59.63;100374.97;1695825;83;21157;-67
2021/03/10 00:15:29;;;;;;;36.90;17.85;;;;;;;-6.46;59.99;100369.78;1706497;83;21169;-66
2021/03/10 00:17:57;;;;;;;47.95;21.42;;;;;;;-6.48;60.24;100367.75;1722070;83;21157;-66
2021/03/10 00:20:25;;;;;;;57.00;25.80;;;;;;;-6.49;60.57;100367.92;1703250;83;21181;-66
2021/03/10 00:22:52;;;;;;;53.48;23.98;;;;;;;-6.45;60.72;100358.70;1658622;85;21158;-66
2021/03/10 00:25:21;;;;;;;54.20;24.20;;;;;;;-6.36;60.85;100361.77;1694285;83;21627;-66
2021/03/10 00:27:48;;;;;;;53.08;24.98;;;;;;;-6.33;60.58;100358.33;1700719;83;21142;-65
2021/03/10 00:30:18;;;;;;;53.75;24.02;;;;;;;-6.34;60.86;100369.91;1718564;83;21153;-65
2021/03/10 00:32:46;;;;;;;58.48;25.62;;;;;;;-6.37;61.02;100362.25;1722771;83;21169;-65
2021/03/10 00:38:11;;;;;;;55.63;24.77;;;;;;;-6.53;60.80;100362.08;1825033;77;22962;-65
2021/03/10 00:40:38;;;;;;;58.85;25.92;;;;;;;-6.66;61.34;100358.95;1798430;77;21573;-66
2021/03/10 00:43:05;;;;;;;57.93;26.75;;;;;;;-6.66;61.44;100361.08;1822389;78;21158;-65
2021/03/10 00:45:33;;;;;;;61.25;29.52;;;;;;;-6.66;61.51;100364.25;1826424;78;21201;-66
2021/03/10 00:48:00;;;;;;;76.05;33.88;;;;;;;-6.74;61.89;100367.62;1802226;78;21157;-65
2021/03/10 00:50:28;;;;;;;94.92;41.35;;;;;;;-6.80;62.25;100362.08;1795483;78;21158;-65
2021/03/10 00:52:56;;;;;;;88.65;39.18;;;;;;;-6.83;62.51;100360.53;1826634;78;21174;-65
2021/03/10 00:55:24;;;;;;;82.50;37.48;;;;;;;-6.80;62.83;100362.08;1827015;77;21143;-65
2021/03/10 00:57:52;;;;;;;70.10;34.05;;;;;;;-6.77;63.12;100361.30;1797127;78;21624;-65
2021/03/10 01:00:20;;;;;;;75.17;34.35;;;;;;;-6.77;63.09;100358.65;1822520;77;21121;-66
2021/03/10 01:02:47;;;;;;;65.92;30.35;;;;;;;-6.78;63.06;100355.65;1823872;78;21178;-65
2021/03/10 01:05:15;;;;;;;57.85;27.60;;;;;;;-6.75;63.42;100358.00;1798901;78;21573;-66
2021/03/10 01:07:44;;;;;;;63.25;28.87;;;;;;;-6.71;63.50;100356.73;1794231;80;21344;-66
2021/03/10 01:10:12;;;;;;;61.55;27.62;;;;;;;-6.72;63.45;100356.86;1804138;78;21130;-67
2021/03/10 01:12:40;;;;;;;60.15;28.20;;;;;;;-6.75;63.78;100350.05;1811142;78;21560;-65
2021/03/10 01:15:11;;;;;;;64.65;28.98;;;;;;;-6.73;64.24;100345.44;1802532;78;21196;-67
2021/03/10 01:17:38;;;;;;;61.55;28.05;;;;;;;-6.70;64.44;100353.59;1826554;78;21171;-65
2021/03/10 01:20:09;;;;;;;65.37;30.10;;;;;;;-6.70;64.70;100349.14;1826518;78;21650;-64
2021/03/10 01:22:37;;;;;;;71.53;31.00;;;;;;;-6.69;64.86;100350.78;1775032;78;21170;-64
2021/03/10 01:25:06;;;;;;;66.95;29.50;;;;;;;-6.63;65.20;100353.36;1800707;78;21195;-66
2021/03/10 01:27:34;;;;;;;65.85;28.57;;;;;;;-6.60;65.50;100354.38;1794039;80;21190;-66
2021/03/10 01:30:18;;;;;;;80.70;31.12;;;;;;;-6.57;65.55;100352.75;1818705;77;21186;-67
2021/03/10 01:32:45;;;;;;;70.28;30.75;;;;;;;-6.58;65.44;100353.73;1678678;85;21236;-65
2021/03/10 01:35:14;;;;;;;78.12;33.38;;;;;;;-6.53;65.70;100355.95;1680780;85;21224;-65
2021/03/10 01:37:41;;;;;;;76.45;34.75;;;;;;;-6.52;65.40;100356.30;1685096;84;21204;-65
2021/03/10 01:40:12;;;;;;;80.62;35.55;;;;;;;-6.56;65.23;100351.30;1652097;87;21192;-65
2021/03/10 01:42:41;;;;;;;81.57;34.03;;;;;;;-6.59;65.29;100352.89;1706491;84;21217;-64
2021/03/10 01:45:10;;;;;;;85.12;34.88;;;;;;;-6.58;65.40;100353.24;1709231;84;21588;-65
2021/03/10 01:47:43;;;;;;;83.97;35.20;;;;;;;-6.56;65.59;100350.46;1709158;84;21143;-65
2021/03/10 01:50:12;;;;;;;76.12;33.45;;;;;;;-6.53;65.63;100355.95;1708712;84;21158;-65
2021/03/10 01:52:39;;;;;;;80.97;34.63;;;;;;;-6.52;65.62;100354.48;1708722;84;21184;-66
2021/03/10 01:55:07;;;;;;;80.75;33.38;;;;;;;-6.50;65.53;100349.02;1677894;85;21168;-65
2021/03/10 01:57:35;;;;;;;76.33;32.17;;;;;;;-6.48;65.30;100349.73;1708652;84;21184;-67
2021/03/10 02:00:29;;;;;;;73.37;32.45;;;;;;;-6.45;64.92;100350.75;1708665;84;21284;-66
2021/03/10 02:02:56;;;;;;;75.12;30.37;;;;;;;-6.46;64.53;100347.75;1810409;78;21772;-65
2021/03/10 02:05:24;;;;;;;65.37;27.75;;;;;;;-6.47;64.55;100355.34;1802605;79;21170;-65
2021/03/10 02:08:12;;;;;;;57.13;27.58;;;;;;;-6.49;64.32;100352.86;1789803;79;21546;-65
2021/03/10 02:10:57;;;;;;;66.25;28.83;;;;;;;-6.50;63.70;100355.64;1795489;79;21661;-66
2021/03/10 02:13:30;;;;;;;59.93;27.35;;;;;;;-6.53;63.66;100351.97;1791262;78;21582;-65
2021/03/10 02:16:28;;;;;;;63.35;26.33;;;;;;;-6.53;63.72;100351.48;1817902;78;21168;-64
2021/03/10 02:19:35;;;;;;;60.75;26.97;;;;;;;-6.60;63.65;100352.57;1778219;79;21320;-64
2021/03/10 02:22:17;;;;;;;60.25;27.20;;;;;;;-6.70;63.40;100357.09;1784364;79;21186;-65
2021/03/10 02:24:59;;;;;;;58.50;25.95;;;;;;;-6.75;63.57;100355.84;1778341;79;21191;-66
2021/03/10 02:27:49;;;;;;;55.35;25.90;;;;;;;-6.78;63.54;100353.00;1772504;79;21614;-65
2021/03/10 02:30:25;;;;;;;54.70;24.10;;;;;;;-6.80;63.38;100354.13;1758754;80;21208;-66
2021/03/10 02:32:58;;;;;;;54.85;25.90;;;;;;;-6.85;63.36;100351.92;1771871;81;21566;-65
2021/03/10 02:35:26;;;;;;;53.25;24.55;;;;;;;-6.94;63.20;100359.39;1772705;79;21247;-65
2021/03/10 02:38:02;;;;;;;59.85;25.80;;;;;;;-6.99;63.08;100353.71;1763848;80;21146;-66
2021/03/10 02:40:30;;;;;;;65.52;28.32;;;;;;;-7.06;63.17;100352.63;1797048;79;21146;-66
2021/03/10 02:42:57;;;;;;;60.58;27.60;;;;;;;-7.11;63.29;100353.53;1757589;79;21303;-66
2021/03/10 02:45:27;;;;;;;59.20;24.92;;;;;;;-7.13;63.44;100353.69;1799861;79;21645;-66
2021/03/10 02:47:55;;;;;;;56.68;26.05;;;;;;;-7.14;63.55;100349.37;1780901;79;21146;-66
2021/03/10 02:50:23;;;;;;;56.92;26.12;;;;;;;-7.13;63.91;100355.02;1797841;79;21704;-66
2021/03/10 02:52:51;;;;;;;55.48;26.52;;;;;;;-7.09;63.90;100348.95;1772528;79;21280;-66
2021/03/10 02:55:19;;;;;;;61.70;27.70;;;;;;;-7.14;63.57;100348.05;1775840;79;21672;-66
2021/03/10 02:57:46;;;;;;;59.95;27.42;;;;;;;-7.19;63.61;100352.11;1776515;80;21173;-66
2021/03/10 03:00:40;;;;;;;64.92;28.27;;;;;;;-7.22;63.77;100349.73;1773248;79;21166;-66
2021/03/10 03:03:07;;;;;;;56.75;25.92;;;;;;;-7.23;63.72;100352.89;1688074;84;21181;-66
2021/03/10 03:05:35;;;;;;;64.62;28.32;;;;;;;-7.27;63.80;100350.66;1696414;84;21657;-65
2021/03/10 03:08:03;;;;;;;63.25;28.45;;;;;;;-7.28;63.94;100355.59;1710072;84;21659;-65
2021/03/10 03:10:35;;;;;;;60.90;29.12;;;;;;;-7.27;64.02;100358.59;1710118;84;21197;-66
2021/03/10 03:13:05;;;;;;;63.58;27.42;;;;;;;-7.25;64.34;100360.12;1727995;83;21241;-66
2021/03/10 03:15:33;;;;;;;63.08;29.07;;;;;;;-7.27;64.37;100359.44;1708107;84;21170;-65
2021/03/10 03:18:01;;;;;;;63.95;28.10;;;;;;;-7.33;64.52;100358.66;1708759;84;21149;-66
2021/03/10 03:20:28;;;;;;;60.35;27.27;;;;;;;-7.34;64.73;100362.30;1684133;84;22047;-66
2021/03/10 03:22:59;;;;;;;60.75;27.07;;;;;;;-7.35;64.65;100361.11;1709724;84;21186;-66
2021/03/10 03:25:28;;;;;;;55.08;27.40;;;;;;;-7.34;64.66;100359.66;1710111;84;21297;-66
2021/03/10 03:27:58;;;;;;;51.50;25.05;;;;;;;-7.35;64.67;100359.31;1710600;83;21597;-66
2021/03/10 03:30:26;;;;;;;56.80;26.90;;;;;;;-7.32;64.95;100356.86;1710158;84;21169;-66
2021/03/10 03:32:54;;;;;;;56.83;25.77;;;;;;;-7.35;64.90;100357.98;1710124;84;21182;-66
2021/03/10 03:35:22;;;;;;;52.45;25.00;;;;;;;-7.38;64.87;100360.92;1710293;84;21158;-66
2021/03/10 03:37:51;;;;;;;48.98;23.05;;;;;;;-7.39;64.92;100368.50;1708670;83;21193;-67
2021/03/10 03:40:21;;;;;;;53.73;23.32;;;;;;;-7.39;64.86;100370.30;1702343;83;21193;-68
2021/03/10 03:42:51;;;;;;;54.45;23.83;;;;;;;-7.41;64.86;100365.66;1701057;83;21213;-67
2021/03/10 03:45:21;;;;;;;53.50;25.45;;;;;;;-7.39;64.83;100367.66;1710067;84;21617;-68
2021/03/10 03:47:53;;;;;;;52.78;24.15;;;;;;;-7.38;64.77;100366.20;1710159;83;21339;-65
2021/03/10 03:50:23;;;;;;;52.17;23.22;;;;;;;-7.36;65.09;100370.02;1710072;83;21709;-65
2021/03/10 03:52:51;;;;;;;45.63;23.22;;;;;;;-7.35;64.93;100367.73;1709541;84;21213;-65
2021/03/10 03:55:19;;;;;;;52.20;24.07;;;;;;;-7.40;64.89;100363.37;1709727;83;21251;-66
2021/03/10 03:57:46;;;;;;;52.78;23.80;;;;;;;-7.44;65.12;100373.88;1681776;84;21712;-65
2021/03/10 04:00:24;;;;;;;45.45;23.32;;;;;;;-7.45;65.23;100366.91;1684007;84;21181;-65
2021/03/10 04:02:52;;;;;;;52.48;22.65;;;;;;;-7.48;65.10;100376.45;1700524;84;21170;-65
2021/03/10 04:05:20;;;;;;;54.60;24.87;;;;;;;-7.49;65.35;100376.94;1712095;82;21160;-65
2021/03/10 04:07:53;;;;;;;55.45;23.38;;;;;;;-7.45;65.48;100366.91;1710905;82;21170;-65
2021/03/10 04:10:29;;;;;;;49.83;23.45;;;;;;;-7.40;65.53;100362.05;1734148;82;21167;-65
2021/03/10 04:12:57;;;;;;;52.60;23.40;;;;;;;-7.39;65.51;100362.37;1716117;82;21147;-66
2021/03/10 04:15:25;;;;;;;53.80;22.50;;;;;;;-7.41;65.30;100366.98;1739584;82;21622;-65
2021/03/10 04:17:53;;;;;;;46.83;21.37;;;;;;;-7.46;65.26;100370.04;1734681;82;21592;-66
2021/03/10 04:20:22;;;;;;;50.55;23.38;;;;;;;-7.46;65.11;100365.23;1724510;82;21148;-65
2021/03/10 04:22:50;;;;;;;50.25;22.10;;;;;;;-7.47;65.21;100369.69;1714297;82;21487;-66
2021/03/10 04:25:17;;;;;;;52.00;22.90;;;;;;;-7.47;65.19;100366.23;1720280;82;21155;-67
2021/03/10 04:27:45;;;;;;;53.63;21.55;;;;;;;-7.49;65.01;100371.66;1715898;82;21175;-67
2021/03/10 04:30:14;;;;;;;47.73;21.97;;;;;;;-7.53;65.22;100369.42;1719527;82;21258;-67
2021/03/10 04:32:42;;;;;;;50.38;21.87;;;;;;;-7.56;65.40;100376.67;1739431;82;21563;-67
2021/03/10 04:35:10;;;;;;;51.63;24.10;;;;;;;-7.58;65.44;100376.47;1739558;82;21190;-67
2021/03/10 04:37:40;;;;;;;53.80;22.70;;;;;;;-7.63;65.56;100376.89;1739313;82;21606;-65
2021/03/10 04:40:10;;;;;;;54.98;24.30;;;;;;;-7.63;65.56;100377.37;1739610;82;21200;-66
2021/03/10 04:42:39;;;;;;;54.95;23.42;;;;;;;-7.61;65.49;100374.92;1682234;84;21198;-66
2021/03/10 04:45:09;;;;;;;54.85;24.32;;;;;;;-7.59;65.63;100380.92;1731513;82;21154;-66
2021/03/10 04:47:37;;;;;;;55.67;23.87;;;;;;;-7.55;65.68;100382.80;1739740;82;21151;-66
2021/03/10 04:50:07;;;;;;;56.45;23.95;;;;;;;-7.51;65.69;100387.31;1726014;82;21234;-67
2021/03/10 04:52:35;;;;;;;59.77;25.12;;;;;;;-7.48;65.76;100385.23;1690283;82;21194;-66
2021/03/10 04:55:29;;;;;;;57.58;24.87;;;;;;;-7.40;65.83;100385.85;1736883;82;21192;-66
2021/03/10 04:57:56;;;;;;;52.40;24.30;;;;;;;-7.31;65.88;100376.56;1655487;85;21208;-66
2021/03/10 05:00:24;;;;;;;55.95;27.60;;;;;;;-7.22;65.91;100387.61;1681166;84;21168;-67
2021/03/10 05:02:52;;;;;;;62.53;27.20;;;;;;;-7.16;66.03;100384.41;1680327;84;21139;-67
2021/03/10 05:05:19;;;;;;;64.67;29.85;;;;;;;-7.05;66.08;100386.86;1653315;85;21226;-67
2021/03/10 05:07:47;;;;;;;66.17;31.33;;;;;;;-6.92;66.36;100393.18;1682935;84;21603;-67
2021/03/10 05:10:17;;;;;;;67.95;31.07;;;;;;;-6.78;66.36;100397.17;1697563;84;21584;-66
2021/03/10 05:12:45;;;;;;;65.40;30.20;;;;;;;-6.62;66.08;100394.72;1705016;84;21141;-66
2021/03/10 05:15:12;;;;;;;68.05;31.40;;;;;;;-6.49;65.67;100395.24;1680919;84;21192;-66
2021/03/10 05:17:40;;;;;;;58.23;29.70;;;;;;;-6.32;65.34;100389.64;1699268;84;21355;-65
2021/03/10 05:20:08;;;;;;;59.83;28.52;;;;;;;-6.13;64.79;100396.16;1711783;82;21330;-66
2021/03/10 05:22:36;;;;;;;55.55;29.55;;;;;;;-5.96;64.15;100389.20;1711938;84;21196;-66
2021/03/10 05:25:25;;;;;;;54.15;26.07;;;;;;;-5.80;63.64;100396.80;1726344;81;21593;-65
2021/03/10 05:27:52;;;;;;;45.10;24.57;;;;;;;-5.66;63.00;100389.63;1603375;87;21233;-64
2021/03/10 05:30:21;;;;;;;52.75;25.02;;;;;;;-5.53;62.28;100392.72;1623125;88;21197;-65
2021/03/10 05:32:49;;;;;;;51.90;26.12;;;;;;;-5.42;62.07;100396.95;1591272;89;21613;-66
2021/03/10 05:35:16;;;;;;;47.25;24.87;;;;;;;-5.25;61.80;100393.47;1598411;88;21338;-64
2021/03/10 05:37:43;;;;;;;49.18;24.57;;;;;;;-5.10;60.89;100393.75;1609853;88;21735;-65
2021/03/10 05:40:11;;;;;;;48.10;23.73;;;;;;;-4.91;60.55;100400.65;1598114;89;21225;-65
2021/03/10 05:42:41;;;;;;;44.58;22.55;;;;;;;-4.81;60.17;100399.55;1589331;88;21612;-68
2021/03/10 05:45:10;;;;;;;43.30;22.80;;;;;;;-4.76;59.17;100397.27;1594675;88;21612;-67
2021/03/10 05:47:37;;;;;;;39.00;18.42;;;;;;;-4.65;59.18;100399.66;1618857;88;21584;-66
2021/03/10 05:50:06;;;;;;;31.40;17.65;;;;;;;-4.57;58.31;100393.56;1611961;88;21172;-66
2021/03/10 05:52:37;;;;;;;36.50;18.85;;;;;;;-4.44;57.92;100402.41;1605466;88;21184;-66
2021/03/10 05:55:06;;;;;;;32.30;15.78;;;;;;;-4.22;57.96;100407.16;1622888;88;21269;-66
2021/03/10 05:57:36;;;;;;;29.85;15.18;;;;;;;-4.04;56.64;100408.69;1608438;88;21547;-63
2021/03/10 06:00:11;;;;;;;31.27;16.95;;;;;;;-3.86;55.75;100411.23;1618243;88;21180;-64
2021/03/10 06:02:40;;;;;;;31.17;15.28;;;;;;;-3.74;55.94;100416.59;1623443;88;21747;-64
2021/03/10 06:05:22;;;;;;;28.20;15.72;;;;;;;-3.61;54.59;100417.44;1623559;88;21200;-64
2021/03/10 06:08:03;;;;;;;28.47;14.73;;;;;;;-3.44;54.37;100418.30;1616877;88;21658;-63
2021/03/10 06:10:47;;;;;;;31.77;15.58;;;;;;;-3.40;53.71;100423.11;1603721;88;21176;-63
2021/03/10 06:13:20;;;;;;;30.65;17.55;;;;;;;-3.33;53.52;100424.11;1595218;90;21640;-63
2021/03/10 06:15:49;;;;;;;33.13;17.70;;;;;;;-3.15;53.77;100430.61;1595155;90;21275;-64
2021/03/10 06:18:30;;;;;;;36.05;18.32;;;;;;;-2.92;53.02;100426.77;1609067;88;21412;-63
2021/03/10 06:21:12;;;;;;;34.18;18.75;;;;;;;-2.69;52.96;100429.05;1621533;88;21252;-63
2021/03/10 06:23:52;;;;;;;34.98;19.48;;;;;;;-2.49;52.47;100426.86;1620853;88;21188;-63
2021/03/10 06:26:30;;;;;;;37.05;20.30;;;;;;;-2.33;52.20;100427.63;1571837;88;21618;-63
2021/03/10 06:28:59;;;;;;;38.28;19.07;;;;;;;-2.06;52.05;100434.38;1576464;89;21664;-62
2021/03/10 06:31:30;;;;;;;31.07;17.48;;;;;;;-1.75;52.03;100432.55;1582765;89;21359;-61
2021/03/10 06:34:12;;;;;;;34.80;19.92;;;;;;;-1.53;48.75;100427.75;1587179;89;21325;-62
2021/03/10 06:36:48;;;;;;;31.82;18.23;;;;;;;-1.38;49.55;100437.13;1578689;89;21263;-62
2021/03/10 06:39:28;;;;;;;34.03;18.77;;;;;;;-1.23;48.94;100435.36;1585825;89;21251;-61
2021/03/10 06:41:56;;;;;;;39.20;19.67;;;;;;;-1.07;48.38;100432.57;1582660;89;21161;-63
2021/03/10 06:44:27;;;;;;;42.27;21.52;;;;;;;-1.04;47.82;100438.05;1589707;89;21222;-63
2021/03/10 06:47:00;;;;;;;33.05;18.52;;;;;;;-0.98;48.19;100433.81;1586695;89;21256;-65
2021/03/10 06:49:33;;;;;;;35.17;19.02;;;;;;;-0.81;48.11;100428.14;1584590;89;21613;-63
2021/03/10 06:52:09;;;;;;;41.10;21.68;;;;;;;-0.64;45.93;100436.86;1605634;89;21971;-63
2021/03/10 06:54:37;;;;;;;34.38;18.85;;;;;;;-0.53;46.69;100436.38;1595868;89;21696;-62
2021/03/10 06:57:06;;;;;;;35.38;17.85;;;;;;;-0.45;45.76;100434.13;1599904;89;21228;-64
2021/03/10 06:59:49;;;;;;;32.98;18.25;;;;;;;-0.44;44.80;100433.95;1582096;90;21235;-64
2021/03/10 07:02:30;;;;;;;29.95;15.88;;;;;;;-0.42;44.33;100435.09;1591058;89;21680;-65
2021/03/10 07:05:00;;;;;;;39.18;20.12;;;;;;;-0.39;44.64;100439.57;1583545;89;21532;-67
2021/03/10 07:07:29;;;;;;;33.78;19.10;;;;;;;-0.41;44.64;100415.37;1600771;89;21241;-67
2021/03/10 07:09:58;;;;;;;34.80;16.77;;;;;;;-0.28;44.54;100438.28;1581870;89;21244;-67
2021/03/10 07:12:29;;;;;;;23.42;13.32;;;;;;;-0.21;44.73;100435.19;1582383;89;21347;-66
2021/03/10 07:14:56;;;;;;;24.72;13.38;;;;;;;-0.04;43.66;100434.80;1595966;89;21648;-65
2021/03/10 07:17:24;;;;;;;21.85;9.93;;;;;;;0.17;42.51;100432.73;1572647;91;21581;-65
2021/03/10 07:19:51;;;;;;;17.35;9.40;;;;;;;0.27;40.72;100431.08;1584431;89;21830;-65
2021/03/10 07:22:41;;;;;;;15.20;8.40;;;;;;;0.28;41.54;100429.56;1596253;89;21212;-65
2021/03/10 07:25:33;;;;;;;17.95;8.25;;;;;;;0.31;39.75;100429.18;1595328;89;21218;-65
2021/03/10 07:28:08;;;;;;;9.90;5.20;;;;;;;0.41;40.27;100431.55;1627580;87;21144;-66
2021/03/10 07:30:39;;;;;;;11.75;5.35;;;;;;;0.56;37.71;100422.12;1678067;85;21180;-65
2021/03/10 07:33:13;;;;;;;10.58;4.60;;;;;;;0.53;37.94;100419.83;1673108;85;21194;-65
2021/03/10 07:35:53;;;;;;;7.72;3.47;;;;;;;0.46;37.07;100421.91;1672254;85;21177;-65
2021/03/10 07:38:24;;;;;;;7.92;3.52;;;;;;;0.46;37.80;100413.87;1680063;85;21216;-66
2021/03/10 07:41:03;;;;;;;9.50;3.87;;;;;;;0.36;37.07;100421.39;1674669;85;21549;-65
2021/03/10 07:43:41;;;;;;;10.65;4.33;;;;;;;0.25;37.89;100423.22;1687710;84;21188;-66
2021/03/10 07:46:32;;;;;;;6.50;4.28;;;;;;;0.13;37.80;100424.74;1689445;84;21188;-65
2021/03/10 07:49:05;;;;;;;6.55;3.37;;;;;;;0.13;38.19;100416.70;1674978;85;21169;-66
2021/03/10 07:51:34;;;;;;;10.10;4.67;;;;;;;0.23;38.65;100423.09;1679944;84;21154;-65
2021/03/10 07:54:06;;;;;;;7.22;3.67;;;;;;;0.55;38.86;100421.30;1663945;84;21209;-64
2021/03/10 07:56:33;;;;;;;7.20;3.22;;;;;;;0.81;36.54;100419.39;1670076;85;21209;-65
2021/03/10 07:59:28;;;;;;;5.87;3.40;;;;;;;1.10;36.22;100428.59;1678985;85;21218;-66
2021/03/10 08:02:06;;;;;;;7.08;3.70;;;;;;;1.25;35.60;100425.33;1693663;83;21133;-65
2021/03/10 08:04:36;;;;;;;6.08;3.30;;;;;;;1.37;36.89;100414.90;1693530;83;21163;-63
2021/03/10 08:07:04;;;;;;;5.97;3.30;;;;;;;1.49;35.22;100412.80;1697649;83;21179;-63
2021/03/10 08:09:32;;;;;;;6.03;3.30;;;;;;;1.66;35.83;100416.53;1693130;85;21631;-65
2021/03/10 08:12:11;;;;;;;6.67;3.40;;;;;;;1.90;35.58;100421.41;1666717;85;21331;-64
2021/03/10 08:14:47;;;;;;;7.60;3.50;;;;;;;1.90;34.05;100409.33;1680341;83;21605;-64
2021/03/10 08:17:25;;;;;;;5.67;3.35;;;;;;;2.01;35.23;100414.13;1647105;87;21137;-64
2021/03/10 08:20:03;;;;;;;10.32;5.15;;;;;;;2.26;33.96;100410.41;1663658;85;21672;-65
2021/03/10 08:22:32;;;;;;;14.70;6.95;;;;;;;2.28;33.83;100407.83;1667225;86;21727;-63
2021/03/10 08:25:01;;;;;;;9.08;3.85;;;;;;;2.25;34.53;100412.27;1671458;84;21283;-64
2021/03/10 08:27:39;;;;;;;6.92;3.77;;;;;;;2.25;33.89;100416.30;1671214;86;21303;-64
2021/03/10 08:30:32;;;;;;;6.58;3.85;;;;;;;2.16;33.46;100408.62;1648370;86;21197;-64
2021/03/10 08:33:05;;;;;;;8.68;4.17;;;;;;;2.19;33.62;100410.90;1649681;85;21792;-64
2021/03/10 08:35:32;;;;;;;6.55;3.47;;;;;;;2.16;33.63;100403.25;1653406;85;21199;-63
2021/03/10 08:38:02;;;;;;;7.60;3.85;;;;;;;2.03;32.99;100410.72;1657231;85;21539;-65
2021/03/10 08:40:32;;;;;;;8.08;4.47;;;;;;;1.91;34.26;100406.42;1660182;85;21179;-64
2021/03/10 08:43:00;;;;;;;6.92;3.70;;;;;;;1.70;34.97;100408.41;1653236;87;21209;-65
2021/03/10 08:45:31;;;;;;;8.00;3.95;;;;;;;1.73;34.86;100416.89;1653422;85;21180;-64
2021/03/10 08:48:10;;;;;;;8.25;4.00;;;;;;;1.91;34.37;100410.45;1655385;85;21149;-64
2021/03/10 08:50:45;;;;;;;6.70;3.50;;;;;;;1.87;34.18;100415.94;1653128;87;21197;-63
2021/03/10 08:53:14;;;;;;;7.60;4.53;;;;;;;1.87;33.98;100407.05;1653370;85;21177;-64
2021/03/10 08:55:42;;;;;;;6.33;3.90;;;;;;;1.93;34.14;100402.21;1647868;87;21206;-63
2021/03/10 08:58:15;;;;;;;7.33;4.58;;;;;;;1.93;34.75;100400.87;1653379;87;21231;-63
2021/03/10 09:00:45;;;;;;;6.20;4.28;;;;;;;1.91;35.16;100403.73;1654621;85;21208;-64
2021/03/10 09:03:18;;;;;;;7.50;3.95;;;;;;;2.03;35.23;100408.55;1665868;85;21632;-64
2021/03/10 09:05:49;;;;;;;8.50;4.60;;;;;;;2.06;35.62;100374.57;1652506;85;21215;-63
2021/03/10 09:08:23;;;;;;;5.40;3.77;;;;;;;2.28;33.57;100405.65;1658464;85;21635;-65
2021/03/10 09:10:54;;;;;;;6.12;3.95;;;;;;;2.26;34.80;100403.19;1655563;85;21221;-62
2021/03/10 09:13:34;;;;;;;6.42;4.03;;;;;;;2.19;33.81;100396.95;1764764;79;22977;-62
2021/03/10 09:16:10;;;;;;;7.80;4.50;;;;;;;2.02;33.42;100402.34;1722958;82;21160;-62
2021/03/10 09:18:39;;;;;;;6.33;3.95;;;;;;;1.88;34.88;100393.91;1730662;80;21754;-61
2021/03/10 09:21:07;;;;;;;7.55;4.03;;;;;;;1.75;34.45;100395.20;1734116;82;21667;-62
2021/03/10 09:23:37;;;;;;;5.70;3.80;;;;;;;1.75;34.48;100392.52;1732595;82;21141;-62
2021/03/10 09:26:06;;;;;;;7.10;3.60;;;;;;;1.79;34.69;100392.44;1745244;82;21187;-61
2021/03/10 09:28:40;;;;;;;7.70;4.87;;;;;;;1.84;34.51;100369.86;1734962;80;21133;-62
2021/03/10 09:31:14;;;;;;;8.15;4.62;;;;;;;2.02;34.38;100392.94;1733887;82;21193;-64
2021/03/10 09:34:02;;;;;;;7.72;4.83;;;;;;;2.11;34.22;100390.92;1729404;82;21145;-62
2021/03/10 09:36:30;;;;;;;10.77;6.20;;;;;;;2.16;34.73;100390.63;1723878;82;21964;-61
2021/03/10 09:39:00;;;;;;;8.25;5.03;;;;;;;2.11;34.46;100386.38;1734345;80;21306;-63
2021/03/10 09:41:34;;;;;;;8.65;5.58;;;;;;;1.93;34.94;100395.50;1701336;83;21157;-62
2021/03/10 09:44:08;;;;;;;7.12;4.65;;;;;;;1.94;35.71;100391.80;1738143;82;21218;-63
2021/03/10 09:46:40;;;;;;;7.45;4.60;;;;;;;1.89;34.71;100395.07;1736330;82;21168;-62
2021/03/10 09:49:08;;;;;;;8.15;5.55;;;;;;;1.84;34.71;100392.68;1706027;83;21592;-61
2021/03/10 09:51:47;;;;;;;10.00;5.00;;;;;;;1.77;34.71;100393.97;1669458;85;21911;-61
2021/03/10 09:54:16;;;;;;;9.65;5.70;;;;;;;1.77;34.94;100395.30;1693468;84;21252;-59
2021/03/10 09:56:49;;;;;;;10.28;4.85;;;;;;;1.94;35.77;100403.37;1682724;84;21181;-62
2021/03/10 09:59:17;;;;;;;9.25;5.28;;;;;;;2.01;35.47;100398.02;1690814;84;21666;-61
2021/03/10 10:01:48;;;;;;;8.73;5.20;;;;;;;1.96;35.68;100395.92;1679445;84;21172;-61
2021/03/10 10:04:25;;;;;;;10.10;5.33;;;;;;;1.92;34.68;100391.15;1683131;84;21188;-60
2021/03/10 10:06:53;;;;;;;14.55;7.58;;;;;;;1.77;34.70;100391.82;1654758;84;21184;-60
2021/03/10 10:09:23;;;;;;;11.35;5.70;;;;;;;1.58;35.03;100392.53;1695734;84;21153;-61
2021/03/10 10:11:50;;;;;;;6.72;4.12;;;;;;;1.50;36.13;100391.66;1679086;84;21214;-61
2021/03/10 10:14:19;;;;;;;6.53;3.87;;;;;;;1.60;36.29;100391.30;1668748;84;21392;-61
2021/03/10 10:16:47;;;;;;;7.42;4.67;;;;;;;1.79;35.40;100387.91;1676257;84;21209;-60
2021/03/10 10:19:16;;;;;;;8.70;5.08;;;;;;;1.85;35.24;100380.89;1675376;84;21185;-60
2021/03/10 10:21:47;;;;;;;6.45;4.25;;;;;;;1.82;34.98;100382.13;1694673;84;21268;-61
2021/03/10 10:24:15;;;;;;;7.80;5.37;;;;;;;1.83;36.20;100385.64;1689805;84;21679;-61
2021/03/10 10:26:44;;;;;;;6.62;4.45;;;;;;;1.93;35.92;100382.08;1693838;84;21185;-60
2021/03/10 10:29:13;;;;;;;10.03;4.83;;;;;;;2.01;34.93;100380.56;1693932;84;21165;-61
2021/03/10 10:31:42;;;;;;;8.73;4.55;;;;;;;2.06;34.80;100379.44;1670578;84;21149;-60
2021/03/10 10:34:10;;;;;;;7.55;4.87;;;;;;;1.98;35.80;100377.74;1670824;86;21196;-60
2021/03/10 10:36:38;;;;;;;7.55;4.37;;;;;;;1.76;35.63;100374.88;1662775;84;21177;-62
2021/03/10 10:39:08;;;;;;;6.65;3.85;;;;;;;1.78;36.29;100376.00;1694425;84;21222;-61
2021/03/10 10:41:36;;;;;;;8.58;5.17;;;;;;;1.73;34.72;100371.77;1692679;84;21198;-61
2021/03/10 10:44:05;;;;;;;13.35;6.10;;;;;;;1.59;34.21;100369.53;1641876;86;21205;-63
2021/03/10 10:46:34;;;;;;;7.45;5.08;;;;;;;1.37;35.11;100368.78;1681759;84;21311;-62
2021/03/10 10:49:02;;;;;;;10.65;5.12;;;;;;;1.24;35.76;100362.51;1677860;85;21194;-63
2021/03/10 10:51:31;;;;;;;8.10;4.90;;;;;;;1.23;35.92;100358.16;1673316;85;21907;-63
2021/03/10 10:54:06;;;;;;;7.80;4.58;;;;;;;1.34;35.46;100361.64;1709172;84;21314;-62
2021/03/10 10:56:34;;;;;;;8.10;4.78;;;;;;;1.39;35.75;100351.97;1682582;82;21176;-62
2021/03/10 10:59:04;;;;;;;7.50;4.28;;;;;;;1.40;35.58;100358.16;1727251;82;21227;-62
2021/03/10 11:01:35;;;;;;;9.18;4.80;;;;;;;1.42;36.39;100355.59;1684375;84;21154;-61
2021/03/10 11:04:02;;;;;;;7.00;4.70;;;;;;;1.44;36.35;100358.09;1709668;84;21158;-63
2021/03/10 11:06:30;;;;;;;6.28;4.25;;;;;;;1.45;35.59;100358.41;1661116;84;21605;-63
2021/03/10 11:09:11;;;;;;;7.05;4.55;;;;;;;1.46;35.97;100343.95;1720339;82;21619;-61
2021/03/10 11:11:38;;;;;;;8.45;4.35;;;;;;;1.56;35.44;100352.46;1765297;80;21616;-62
2021/03/10 11:14:06;;;;;;;9.83;5.10;;;;;;;1.65;34.82;100347.77;1756973;81;21207;-62
2021/03/10 11:16:40;;;;;;;12.47;8.35;;;;;;;1.67;36.46;100340.34;1777086;80;21319;-62
2021/03/10 11:19:16;;;;;;;9.07;5.13;;;;;;;1.75;35.99;100337.48;1807187;77;28241;-60
2021/03/10 11:21:45;;;;;;;6.72;4.80;;;;;;;2.06;34.73;100339.14;1759360;81;21262;-61
2021/03/10 11:24:15;;;;;;;8.45;5.37;;;;;;;2.08;34.59;100341.64;1769264;81;21184;-61
2021/03/10 11:26:44;;;;;;;7.50;5.40;;;;;;;1.96;34.66;100336.85;1759462;81;21152;-60
2021/03/10 11:29:14;;;;;;;8.50;4.67;;;;;;;1.95;35.75;100337.04;1767229;81;21198;-62
2021/03/10 11:31:42;;;;;;;7.87;4.80;;;;;;;2.07;35.62;100336.78;1739181;81;21164;-60
2021/03/10 11:34:10;;;;;;;7.92;5.00;;;;;;;2.25;35.30;100333.52;1741271;81;21176;-61
2021/03/10 11:36:38;;;;;;;9.55;5.03;;;;;;;2.34;35.33;100331.77;1744284;81;21655;-60
2021/03/10 11:39:07;;;;;;;9.70;5.17;;;;;;;2.33;34.56;100327.45;1751316;81;21168;-60